Time;durP1;ratioP1;P1;durP2;ratioP2;P2;SDS_P1;SDS_P2;PMS_P1;PMS_P2;Temp;Humidity;BMP_temperature;BMP_pressure;BME280_temperature;BME280_humidity;BME280_pressure;Samples;Min_cycle;Max_cycle;Signal;HPM_P1;HPM_P2
2021/01/07 00:00:38;;;;;;;23.75;18.80;;;;;;;-144.01;100.00;62166.59;5061899;28;20056;-52
2021/01/07 00:03:05;;;;;;;24.00;18.40;;;;;;;-144.01;100.00;62166.59;5067862;28;20056;-54
2021/01/07 00:05:33;;;;;;;25.48;19.25;;;;;;;-144.01;100.00;62166.59;5075888;28;20455;-52
2021/01/07 00:08:00;;;;;;;30.63;23.10;;;;;;;-144.01;100.00;62166.59;5066724;28;20494;-52
2021/01/07 00:10:27;;;;;;;34.67;24.95;;;;;;;-144.01;100.00;62166.59;5056320;28;20053;-52
2021/01/07 00:12:55;;;;;;;32.72;23.27;;;;;;;-144.01;100.00;62166.59;5054454;28;20059;-50
2021/01/07 00:15:34;;;;;;;33.80;23.58;;;;;;;-144.01;100.00;62166.59;5060733;28;20057;-52
2021/01/07 00:18:01;;;;;;;29.48;22.17;;;;;;;-144.01;100.00;62166.59;5055175;28;20048;-57
2021/01/07 00:20:29;;;;;;;31.48;23.00;;;;;;;-144.01;100.00;62166.59;5055630;28;20367;-54
2021/01/07 00:22:56;;;;;;;29.05;22.00;;;;;;;-144.01;100.00;62166.59;5055177;28;20399;-53
2021/01/07 00:25:23;;;;;;;28.45;20.85;;;;;;;-144.01;100.00;62166.59;5070052;28;20055;-53
2021/01/07 00:27:51;;;;;;;29.67;21.25;;;;;;;-144.01;100.00;62166.59;5074620;28;20321;-53
2021/01/07 00:30:18;;;;;;;26.15;20.00;;;;;;;-144.01;100.00;62166.59;5074826;28;20051;-51
2021/01/07 00:32:45;;;;;;;27.65;20.52;;;;;;;-144.01;100.00;62166.59;5074943;28;20048;-53
2021/01/07 00:35:13;;;;;;;26.88;19.55;;;;;;;-144.01;100.00;62166.59;5061536;28;20057;-53
2021/01/07 00:37:40;;;;;;;26.13;19.15;;;;;;;-144.01;100.00;62166.59;5054583;28;20065;-51
2021/01/07 00:40:07;;;;;;;24.48;18.30;;;;;;;-144.01;100.00;62166.59;5055405;28;20060;-51
2021/01/07 00:42:34;;;;;;;23.17;17.25;;;;;;;-144.01;100.00;62166.59;5055396;28;20055;-53
2021/01/07 00:45:02;;;;;;;22.10;16.45;;;;;;;-144.01;100.00;62166.59;5066594;28;20461;-52
2021/01/07 00:47:29;;;;;;;21.52;15.23;;;;;;;-144.01;100.00;62166.59;5075098;28;20052;-54
2021/01/07 00:49:57;;;;;;;21.00;15.55;;;;;;;-144.01;100.00;62166.59;5049698;28;20056;-53
2021/01/07 00:52:24;;;;;;;20.58;15.52;;;;;;;-144.01;100.00;62166.59;5055313;28;20486;-54
2021/01/07 00:54:51;;;;;;;21.52;16.73;;;;;;;-144.01;100.00;62166.59;5064689;28;20398;-52
2021/01/07 00:57:21;;;;;;;20.90;14.63;;;;;;;-144.01;100.00;62166.59;5047767;28;20055;-50
2021/01/07 00:59:49;;;;;;;20.25;14.57;;;;;;;-144.01;100.00;62166.59;5055088;28;20056;-51
2021/01/07 01:02:18;;;;;;;19.27;14.70;;;;;;;-144.01;100.00;62166.59;5054472;28;20045;-55
2021/01/07 01:04:46;;;;;;;21.25;13.98;;;;;;;-144.01;100.00;62166.59;5054540;28;20471;-50
2021/01/07 01:07:13;;;;;;;17.40;12.38;;;;;;;-144.01;100.00;62166.59;5054333;28;20068;-53
2021/01/07 01:09:40;;;;;;;17.02;13.00;;;;;;;-144.01;100.00;62166.59;5055125;28;20490;-53
2021/01/07 01:12:07;;;;;;;18.70;13.18;;;;;;;-144.01;100.00;62166.59;5055062;28;20048;-52
2021/01/07 01:14:34;;;;;;;18.23;12.73;;;;;;;-144.01;100.00;62166.59;5054619;28;20359;-53
2021/01/07 01:17:02;;;;;;;15.40;11.35;;;;;;;-144.01;100.00;62166.59;5054507;28;20376;-54
2021/01/07 01:19:29;;;;;;;16.52;12.00;;;;;;;-144.01;100.00;62166.59;5054667;28;20445;-52
2021/01/07 01:21:56;;;;;;;14.23;10.57;;;;;;;-144.01;100.00;62166.59;5065528;28;20370;-51
2021/01/07 01:24:23;;;;;;;15.73;11.23;;;;;;;-144.01;100.00;62166.59;5074557;28;20047;-52
2021/01/07 01:26:57;;;;;;;15.57;11.13;;;;;;;-144.01;100.00;62166.59;5074336;28;20462;-53
2021/01/07 01:29:25;;;;;;;14.02;10.60;;;;;;;-144.01;100.00;62166.59;5074339;28;20370;-55
2021/01/07 01:31:53;;;;;;;13.98;10.93;;;;;;;-144.01;100.00;62166.59;5073785;28;20048;-55
2021/01/07 01:34:21;;;;;;;15.05;10.40;;;;;;;-144.01;100.00;62166.59;5047304;28;20045;-52
2021/01/07 01:36:49;;;;;;;14.02;10.02;;;;;;;-144.01;100.00;62166.59;5053953;28;20060;-54
2021/01/07 01:39:17;;;;;;;13.02;10.15;;;;;;;-144.01;100.00;62166.59;5054091;28;20049;-51
2021/01/07 01:41:47;;;;;;;14.50;10.40;;;;;;;-144.01;100.00;62166.59;5054976;28;20056;-51
2021/01/07 01:44:16;;;;;;;17.15;11.25;;;;;;;-144.01;100.00;62166.59;5074146;28;20055;-51
2021/01/07 01:46:43;;;;;;;15.52;11.65;;;;;;;-144.01;100.00;62166.59;5059260;28;20439;-55
2021/01/07 01:49:14;;;;;;;15.40;10.93;;;;;;;-144.01;100.00;62166.59;5053261;28;20379;-54
2021/01/07 01:51:42;;;;;;;17.70;10.95;;;;;;;-144.01;100.00;62166.59;5054406;28;20048;-54
2021/01/07 01:54:09;;;;;;;18.30;11.90;;;;;;;-144.01;100.00;62166.59;5040029;28;20052;-50
2021/01/07 01:56:37;;;;;;;13.77;10.25;;;;;;;-144.01;100.00;62166.59;5074062;28;20052;-53
2021/01/07 01:59:04;;;;;;;13.07;10.00;;;;;;;-144.01;100.00;62166.59;5056551;28;20053;-53
2021/01/07 02:01:31;;;;;;;8.60;6.30;;;;;;;-144.01;100.00;62166.59;5056977;28;20436;-51
2021/01/07 02:03:58;;;;;;;8.23;5.57;;;;;;;-144.01;100.00;62166.59;5059623;28;20048;-55
2021/01/07 02:06:28;;;;;;;2.17;1.20;;;;;;;-144.01;100.00;62166.59;5056065;28;20037;-53
2021/01/07 02:08:55;;;;;;;1.60;0.90;;;;;;;-144.01;100.00;62166.59;5062339;28;20069;-53
2021/01/07 02:11:23;;;;;;;1.77;1.02;;;;;;;-144.01;100.00;62166.59;5052735;28;20052;-57
2021/01/07 02:13:50;;;;;;;1.45;0.60;;;;;;;-144.01;100.00;62166.59;5070814;28;20517;-52
2021/01/07 02:16:26;;;;;;;1.73;0.70;;;;;;;-144.01;100.00;62166.59;5053645;28;20056;-52
2021/01/07 02:18:54;;;;;;;1.30;0.68;;;;;;;-144.01;100.00;62166.59;5053675;28;20057;-52
2021/01/07 02:21:22;;;;;;;1.30;0.60;;;;;;;-144.01;100.00;62166.59;5053467;28;20478;-51
2021/01/07 02:23:52;;;;;;;1.38;0.55;;;;;;;-144.01;100.00;62166.59;5070456;28;20048;-54
2021/01/07 02:26:20;;;;;;;1.15;0.50;;;;;;;-144.01;100.00;62166.59;5073510;28;20051;-52
2021/01/07 02:28:48;;;;;;;2.75;0.50;;;;;;;-144.01;100.00;62166.59;5073608;28;20056;-52
2021/01/07 02:31:16;;;;;;;1.60;0.60;;;;;;;-144.01;100.00;62166.59;5073661;28;20486;-53
2021/01/07 02:33:43;;;;;;;1.30;0.55;;;;;;;-144.01;100.00;62166.59;5072766;28;20052;-54
2021/01/07 02:36:12;;;;;;;0.93;0.43;;;;;;;-144.01;100.00;62166.59;5055915;28;20526;-54
2021/01/07 02:38:40;;;;;;;1.38;0.60;;;;;;;-144.01;100.00;62166.59;5073388;28;20056;-52
2021/01/07 02:41:08;;;;;;;1.65;0.70;;;;;;;-144.01;100.00;62166.59;5073590;28;20048;-51
2021/01/07 02:43:38;;;;;;;2.08;0.70;;;;;;;-144.01;100.00;62166.59;5069081;28;20053;-52
2021/01/07 02:46:06;;;;;;;1.17;0.70;;;;;;;-144.01;100.00;62166.59;5053264;28;20051;-54
2021/01/07 02:48:33;;;;;;;1.65;0.60;;;;;;;-144.01;100.00;62166.59;5053427;28;20057;-54
2021/01/07 02:51:00;;;;;;;1.00;0.52;;;;;;;-144.01;100.00;62166.59;5053414;28;20053;-55
2021/01/07 02:53:27;;;;;;;1.08;0.50;;;;;;;-144.01;100.00;62166.59;5066245;28;20056;-54
2021/01/07 02:55:55;;;;;;;1.10;0.50;;;;;;;-144.01;100.00;62166.59;5073323;28;20482;-54
2021/01/07 02:58:22;;;;;;;0.70;0.35;;;;;;;-144.01;100.00;62166.59;5073355;28;20083;-54
2021/01/07 03:00:49;;;;;;;1.77;0.70;;;;;;;-144.01;100.00;62166.59;5076813;28;20047;-55
2021/01/07 03:03:16;;;;;;;0.90;0.50;;;;;;;-144.01;100.00;62166.59;5076629;28;20053;-53
2021/01/07 03:05:43;;;;;;;1.95;0.40;;;;;;;-144.01;100.00;62166.59;5077212;28;20044;-52
2021/01/07 03:08:10;;;;;;;1.08;0.50;;;;;;;-144.01;100.00;62166.59;5077032;28;20067;-53
2021/01/07 03:10:38;;;;;;;1.23;0.40;;;;;;;-144.01;100.00;62166.59;5076985;28;20052;-51
2021/01/07 03:13:05;;;;;;;1.13;0.40;;;;;;;-144.01;100.00;62166.59;5076749;28;20477;-53
2021/01/07 03:15:32;;;;;;;1.30;0.60;;;;;;;-144.01;100.00;62166.59;5076899;28;20059;-52
2021/01/07 03:17:59;;;;;;;0.70;0.30;;;;;;;-144.01;100.00;62166.59;5076967;28;20443;-53
2021/01/07 03:20:26;;;;;;;0.77;0.40;;;;;;;-144.01;100.00;62166.59;5076903;28;20045;-54
2021/01/07 03:22:53;;;;;;;0.70;0.40;;;;;;;-144.01;100.00;62166.59;5076634;28;20048;-54
2021/01/07 03:25:20;;;;;;;0.93;0.50;;;;;;;-144.01;100.00;62166.59;5076655;28;20047;-53
2021/01/07 03:27:47;;;;;;;0.90;0.50;;;;;;;-144.01;100.00;62166.59;5076739;28;20063;-52
2021/01/07 03:30:15;;;;;;;0.77;0.40;;;;;;;-144.01;100.00;62166.59;5076694;28;20055;-53
2021/01/07 03:32:42;;;;;;;1.20;0.60;;;;;;;-144.01;100.00;62166.59;5068729;28;20048;-53
2021/01/07 03:35:10;;;;;;;1.52;0.60;;;;;;;-144.01;100.00;62166.59;5076679;28;20049;-52
2021/01/07 03:37:37;;;;;;;1.35;0.57;;;;;;;-144.01;100.00;62166.59;5076306;28;20147;-54
2021/01/07 03:40:05;;;;;;;1.25;0.70;;;;;;;-144.01;100.00;62166.59;5076725;28;20048;-52
2021/01/07 03:42:32;;;;;;;1.48;0.70;;;;;;;-144.01;100.00;62166.59;5076251;28;20048;-52
2021/01/07 03:45:00;;;;;;;2.97;0.65;;;;;;;-144.01;100.00;62166.59;5076550;28;20048;-52
2021/01/07 03:47:27;;;;;;;1.08;0.52;;;;;;;-144.01;100.00;62166.59;5076401;28;20056;-53
2021/01/07 03:49:54;;;;;;;1.02;0.43;;;;;;;-144.01;100.00;62166.59;5063106;28;20045;-54
2021/01/07 03:52:21;;;;;;;1.42;0.70;;;;;;;-144.01;100.00;62166.59;5058158;28;20059;-52
2021/01/07 03:54:48;;;;;;;1.67;0.70;;;;;;;-144.01;100.00;62166.59;5076427;28;20074;-56
2021/01/07 03:57:15;;;;;;;1.30;0.70;;;;;;;-144.01;100.00;62166.59;5075919;28;20060;-53
2021/01/07 03:59:42;;;;;;;1.30;0.70;;;;;;;-144.01;100.00;62166.59;5076263;28;20041;-56
2021/01/07 04:02:10;;;;;;;1.15;0.60;;;;;;;-144.01;100.00;62166.59;5075575;28;20067;-53
2021/01/07 04:04:37;;;;;;;0.88;0.40;;;;;;;-144.01;100.00;62166.59;5076308;28;20048;-53
2021/01/07 04:07:04;;;;;;;0.98;0.50;;;;;;;-144.01;100.00;62166.59;5075911;28;20056;-54
2021/01/07 04:09:31;;;;;;;1.00;0.52;;;;;;;-144.01;100.00;62166.59;5065578;28;20052;-56
2021/01/07 04:11:58;;;;;;;2.65;0.70;;;;;;;-144.01;100.00;62166.59;5055090;28;20057;-54
2021/01/07 04:14:25;;;;;;;1.75;0.63;;;;;;;-144.01;100.00;62166.59;5074185;28;20059;-55
2021/01/07 04:16:52;;;;;;;4.85;1.33;;;;;;;-144.01;100.00;62166.59;5068477;28;20472;-56
2021/01/07 04:19:19;;;;;;;1.58;0.60;;;;;;;-144.01;100.00;62166.59;5054697;28;20052;-54
2021/01/07 04:21:47;;;;;;;1.98;0.70;;;;;;;-144.01;100.00;62166.59;5055591;28;20056;-57
2021/01/07 04:24:15;;;;;;;3.30;0.60;;;;;;;-144.01;100.00;62166.59;5072137;28;20044;-59
2021/01/07 04:26:45;;;;;;;1.45;0.60;;;;;;;-144.01;100.00;62166.59;5075317;28;20109;-55
2021/01/07 04:29:13;;;;;;;1.15;0.50;;;;;;;-144.01;100.00;62166.59;5075535;28;20048;-55
2021/01/07 04:31:40;;;;;;;1.33;0.50;;;;;;;-144.01;100.00;62166.59;5074969;28;20056;-63
2021/01/07 04:34:07;;;;;;;2.30;0.77;;;;;;;-144.01;100.00;62166.59;5061653;28;20049;-55
2021/01/07 04:36:34;;;;;;;1.95;0.75;;;;;;;-144.01;100.00;62166.59;5055145;28;20494;-55
2021/01/07 04:39:02;;;;;;;1.08;0.50;;;;;;;-144.01;100.00;62166.59;5055227;28;20053;-54
2021/01/07 04:41:29;;;;;;;1.83;0.68;;;;;;;-144.01;100.00;62166.59;5055357;28;20070;-55
2021/01/07 04:43:58;;;;;;;1.95;0.65;;;;;;;-144.01;100.00;62166.59;5068594;28;20474;-57
2021/01/07 04:46:25;;;;;;;9.38;0.80;;;;;;;-144.01;100.00;62166.59;5075216;28;20052;-55
2021/01/07 04:48:53;;;;;;;1.55;0.52;;;;;;;-144.01;100.00;62166.59;5075143;28;20040;-54
2021/01/07 04:51:20;;;;;;;2.63;0.82;;;;;;;-144.01;100.00;62166.59;5063706;28;20048;-53
2021/01/07 04:53:49;;;;;;;1.92;1.10;;;;;;;-144.01;100.00;62166.59;5054362;28;20067;-53
2021/01/07 04:56:16;;;;;;;1.35;0.80;;;;;;;-144.01;100.00;62166.59;5053618;28;20052;-55
2021/01/07 04:58:43;;;;;;;2.63;1.20;;;;;;;-144.01;100.00;62166.59;5054911;28;20383;-55
2021/01/07 05:01:10;;;;;;;1.90;0.80;;;;;;;-144.01;100.00;62166.59;5055072;28;20053;-54
2021/01/07 05:03:38;;;;;;;2.85;1.10;;;;;;;-144.01;100.00;62166.59;5054722;28;20451;-57
2021/01/07 05:06:05;;;;;;;1.98;0.90;;;;;;;-144.01;100.00;62166.59;5054914;28;20045;-52
2021/01/07 05:08:32;;;;;;;3.40;1.05;;;;;;;-144.01;100.00;62166.59;5054552;28;20087;-54
2021/01/07 05:10:59;;;;;;;2.67;1.20;;;;;;;-144.01;100.00;62166.59;5054541;28;20044;-61
2021/01/07 05:13:26;;;;;;;2.10;1.08;;;;;;;-144.01;100.00;62166.59;5054869;28;20045;-63
2021/01/07 05:15:54;;;;;;;2.45;0.85;;;;;;;-144.01;100.00;62166.59;5054595;28;20051;-60
2021/01/07 05:18:21;;;;;;;4.80;0.88;;;;;;;-144.01;100.00;62166.59;5064505;28;20082;-62
2021/01/07 05:20:48;;;;;;;2.22;1.40;;;;;;;-144.01;100.00;62166.59;5053924;28;20049;-61
2021/01/07 05:23:15;;;;;;;2.70;1.27;;;;;;;-144.01;100.00;62166.59;5054221;28;20055;-57
2021/01/07 05:25:43;;;;;;;2.42;0.63;;;;;;;-144.01;100.00;62166.59;5053476;28;20059;-65
2021/01/07 05:28:10;;;;;;;1.98;0.73;;;;;;;-144.01;100.00;62166.59;5042535;28;20063;-57
2021/01/07 05:30:37;;;;;;;2.13;1.20;;;;;;;-144.01;100.00;62166.59;5072183;28;20044;-57
2021/01/07 05:33:06;;;;;;;2.88;1.30;;;;;;;-144.01;100.00;62166.59;5060830;28;20362;-62
2021/01/07 05:35:35;;;;;;;5.35;1.25;;;;;;;-144.01;100.00;62166.59;5056582;28;20052;-60
2021/01/07 05:38:05;;;;;;;3.53;1.10;;;;;;;-144.01;100.00;62166.59;5054513;28;20060;-67
2021/01/07 05:40:34;;;;;;;2.95;1.20;;;;;;;-144.01;100.00;62166.59;5054246;28;20045;-67
2021/01/07 05:43:08;;;;;;;3.38;1.40;;;;;;;-144.01;100.00;62166.59;5057615;28;20432;-69
2021/01/07 05:45:37;;;;;;;3.50;1.17;;;;;;;-144.01;100.00;62166.59;5053168;28;20052;-68
2021/01/07 05:48:06;;;;;;;2.40;1.08;;;;;;;-144.01;100.00;62166.59;5054345;28;20049;-68
2021/01/07 05:50:38;;;;;;;3.47;0.90;;;;;;;-144.01;100.00;62166.59;5054212;28;20045;-68
2021/01/07 05:53:06;;;;;;;2.28;0.90;;;;;;;-144.01;100.00;62166.59;5058998;28;20052;-69
2021/01/07 05:55:33;;;;;;;4.75;1.52;;;;;;;-144.01;100.00;62166.59;5054089;28;20348;-69
2021/01/07 05:58:01;;;;;;;3.10;1.42;;;;;;;-144.01;100.00;62166.59;5054028;28;20044;-70
2021/01/07 06:00:31;;;;;;;2.25;1.27;;;;;;;-144.01;100.00;62166.59;5053945;28;20060;-67
2021/01/07 06:03:00;;;;;;;3.65;1.20;;;;;;;-144.01;100.00;62166.59;5058375;28;20065;-66
2021/01/07 06:05:29;;;;;;;3.70;1.48;;;;;;;-144.01;100.00;62166.59;5052751;28;20056;-68
2021/01/07 06:07:57;;;;;;;3.30;1.30;;;;;;;-144.01;100.00;62166.59;5070408;28;20056;-67
2021/01/07 06:10:24;;;;;;;2.47;1.20;;;;;;;-144.01;100.00;62166.59;5073994;28;20764;-68
2021/01/07 06:12:52;;;;;;;3.08;1.65;;;;;;;-144.01;100.00;62166.59;5073654;28;20041;-68
2021/01/07 06:15:22;;;;;;;2.40;1.40;;;;;;;-144.01;100.00;62166.59;5063711;28;20048;-68
2021/01/07 06:17:49;;;;;;;2.80;1.40;;;;;;;-144.01;100.00;62166.59;5053842;28;20053;-69
2021/01/07 06:20:21;;;;;;;4.40;1.55;;;;;;;-144.01;100.00;62166.59;5053887;28;20053;-68
2021/01/07 06:22:50;;;;;;;2.78;1.70;;;;;;;-144.01;100.00;62166.59;5064291;28;20052;-67
2021/01/07 06:25:21;;;;;;;3.33;1.40;;;;;;;-144.01;100.00;62166.59;5073511;28;20063;-68
2021/01/07 06:27:52;;;;;;;4.53;2.15;;;;;;;-144.01;100.00;62166.59;5043094;28;20056;-68
2021/01/07 06:30:20;;;;;;;4.40;1.83;;;;;;;-144.01;100.00;62166.59;5053537;28;20064;-68
2021/01/07 06:33:05;;;;;;;3.70;1.60;;;;;;;-144.01;100.00;62166.59;5064151;28;20233;-68
2021/01/07 06:35:37;;;;;;;4.13;2.08;;;;;;;-144.01;100.00;62166.59;5072808;28;20455;-68
2021/01/07 06:38:04;;;;;;;3.08;1.48;;;;;;;-144.01;100.00;62166.59;5073484;28;20064;-68
2021/01/07 06:40:32;;;;;;;2.55;1.20;;;;;;;-144.01;100.00;62166.59;5073292;28;20060;-67
2021/01/07 06:42:59;;;;;;;3.88;1.60;;;;;;;-144.01;100.00;62166.59;5063755;28;20455;-68
2021/01/07 06:45:26;;;;;;;2.50;1.25;;;;;;;-144.01;100.00;62166.59;5053502;28;20056;-68
2021/01/07 06:47:55;;;;;;;3.35;1.50;;;;;;;-144.01;100.00;62166.59;5053491;28;20045;-66
2021/01/07 06:50:23;;;;;;;3.03;1.60;;;;;;;-144.01;100.00;62166.59;5053442;28;20060;-68
2021/01/07 06:52:50;;;;;;;3.17;1.83;;;;;;;-144.01;100.00;62166.59;5064098;28;20354;-68
2021/01/07 06:55:19;;;;;;;5.38;2.78;;;;;;;-144.01;100.00;62166.59;5073689;28;20063;-68
2021/01/07 06:57:48;;;;;;;5.22;2.00;;;;;;;-144.01;100.00;62166.59;5073315;28;20048;-68
2021/01/07 07:00:20;;;;;;;6.25;2.17;;;;;;;-144.01;100.00;62166.59;5073476;28;20052;-68
2021/01/07 07:02:57;;;;;;;4.70;2.17;;;;;;;-144.01;100.00;62166.59;5072714;28;20044;-69
2021/01/07 07:05:32;;;;;;;4.43;1.70;;;;;;;-144.01;100.00;62166.59;5053158;28;20056;-71
2021/01/07 07:08:10;;;;;;;4.35;1.70;;;;;;;-144.01;100.00;62166.59;5035673;28;20387;-68
2021/01/07 07:10:37;;;;;;;3.90;2.03;;;;;;;-144.01;100.00;62166.59;5053306;28;20565;-69
2021/01/07 07:13:25;;;;;;;4.05;1.70;;;;;;;-144.01;100.00;62166.59;5065148;28;20367;-68
2021/01/07 07:15:52;;;;;;;3.67;1.80;;;;;;;-144.01;100.00;62166.59;5053086;28;20456;-67
2021/01/07 07:18:34;;;;;;;3.53;1.73;;;;;;;-144.01;100.00;62166.59;5065791;28;20064;-69
2021/01/07 07:21:14;;;;;;;4.40;1.80;;;;;;;-144.01;100.00;62166.59;5072843;28;20052;-68
2021/01/07 07:23:42;;;;;;;5.07;1.63;;;;;;;-144.01;100.00;62166.59;5072855;28;20049;-68
2021/01/07 07:26:12;;;;;;;3.88;1.75;;;;;;;-144.01;100.00;62166.59;5073051;28;20048;-68
2021/01/07 07:28:43;;;;;;;3.67;2.10;;;;;;;-144.01;100.00;62166.59;5042084;28;20049;-68
2021/01/07 07:31:11;;;;;;;3.93;1.80;;;;;;;-144.01;100.00;62166.59;5052921;28;20068;-68
2021/01/07 07:33:41;;;;;;;8.00;2.25;;;;;;;-144.01;100.00;62166.59;5069486;28;20366;-68
2021/01/07 07:36:09;;;;;;;4.65;1.52;;;;;;;-144.01;100.00;62166.59;5073150;28;20053;-68
2021/01/07 07:38:41;;;;;;;3.88;1.58;;;;;;;-144.01;100.00;62166.59;5072149;28;20051;-67
2021/01/07 07:41:09;;;;;;;3.30;1.85;;;;;;;-144.01;100.00;62166.59;5072829;28;20052;-68
2021/01/07 07:43:37;;;;;;;3.45;1.65;;;;;;;-144.01;100.00;62166.59;5072752;28;20386;-67
2021/01/07 07:46:07;;;;;;;4.88;1.75;;;;;;;-144.01;100.00;62166.59;5066198;28;20051;-69
2021/01/07 07:48:34;;;;;;;4.90;1.60;;;;;;;-144.01;100.00;62166.59;5056208;28;20502;-68
2021/01/07 07:51:12;;;;;;;5.32;1.60;;;;;;;-144.01;100.00;62166.59;5056362;28;20056;-68
2021/01/07 07:53:39;;;;;;;2.85;1.10;;;;;;;-144.01;100.00;62166.59;5071794;28;20056;-68
2021/01/07 07:56:24;;;;;;;1.50;0.85;;;;;;;-144.01;100.00;62166.59;5061158;28;20041;-68
2021/01/07 07:59:01;;;;;;;2.47;0.93;;;;;;;-144.01;100.00;62166.59;5056387;28;20048;-67
2021/01/07 08:01:49;;;;;;;4.28;1.02;;;;;;;-144.01;100.00;62166.59;5056447;28;20056;-68
2021/01/07 08:04:20;;;;;;;1.77;0.77;;;;;;;-144.01;100.00;62166.59;5056170;28;20059;-67
2021/01/07 08:06:48;;;;;;;1.10;0.50;;;;;;;-144.01;100.00;62166.59;5055848;28;20053;-67
2021/01/07 08:09:18;;;;;;;0.90;0.50;;;;;;;-144.01;100.00;62166.59;5056138;28;20049;-68
2021/01/07 08:11:50;;;;;;;1.08;0.40;;;;;;;-144.01;100.00;62166.59;5056106;28;20053;-69
2021/01/07 08:14:25;;;;;;;1.20;0.83;;;;;;;-144.01;100.00;62166.59;5056032;28;20049;-67
2021/01/07 08:16:56;;;;;;;1.75;0.80;;;;;;;-144.01;100.00;62166.59;5055835;28;20311;-68
2021/01/07 08:19:31;;;;;;;1.90;0.77;;;;;;;-144.01;100.00;62166.59;5055942;28;20056;-68
2021/01/07 08:21:58;;;;;;;1.27;0.88;;;;;;;-144.01;100.00;62166.59;5056493;28;20064;-68
2021/01/07 08:24:26;;;;;;;1.10;0.50;;;;;;;-144.01;100.00;62166.59;5075784;28;20446;-68
2021/01/07 08:27:21;;;;;;;1.80;1.10;;;;;;;-144.01;100.00;62166.59;5065998;28;20049;-72
2021/01/07 08:29:56;;;;;;;0.82;0.60;;;;;;;-144.01;100.00;62166.59;5050686;28;20041;-67
2021/01/07 08:32:28;;;;;;;2.55;0.68;;;;;;;-144.01;100.00;62166.59;5055635;28;20057;-67
2021/01/07 08:34:57;;;;;;;1.50;0.98;;;;;;;-144.01;100.00;62166.59;5054699;28;20052;-67
2021/01/07 08:37:33;;;;;;;1.00;0.60;;;;;;;-144.01;100.00;62166.59;5056535;28;20395;-68
2021/01/07 08:40:07;;;;;;;1.83;0.90;;;;;;;-144.01;100.00;62166.59;5075646;28;20055;-72
2021/01/07 08:42:39;;;;;;;2.10;0.60;;;;;;;-144.01;100.00;62166.59;5041429;28;20055;-67
2021/01/07 08:45:08;;;;;;;1.67;0.68;;;;;;;-144.01;100.00;62166.59;5075286;28;20048;-68
2021/01/07 08:47:35;;;;;;;1.10;0.75;;;;;;;-144.01;100.00;62166.59;5075278;28;20056;-68
2021/01/07 08:50:07;;;;;;;1.30;0.80;;;;;;;-144.01;100.00;62166.59;5075519;28;20049;-67
2021/01/07 08:52:53;;;;;;;1.20;0.70;;;;;;;-144.01;100.00;62166.59;5075276;28;20056;-67
2021/01/07 08:55:44;;;;;;;2.17;0.70;;;;;;;-144.01;100.00;62166.59;5075050;28;20044;-67
2021/01/07 08:58:18;;;;;;;1.60;0.88;;;;;;;-144.01;100.00;62166.59;5063170;28;20060;-67
2021/01/07 09:00:48;;;;;;;1.70;0.88;;;;;;;-144.01;100.00;62166.59;5075201;28;20443;-68
2021/01/07 09:03:15;;;;;;;2.08;0.70;;;;;;;-144.01;100.00;62166.59;5069791;28;20052;-67
2021/01/07 09:05:43;;;;;;;1.65;0.80;;;;;;;-144.01;100.00;62166.59;5074878;28;20055;-68
2021/01/07 09:08:11;;;;;;;1.92;1.23;;;;;;;-144.01;100.00;62166.59;5074602;28;20379;-67
2021/01/07 09:10:38;;;;;;;1.65;1.10;;;;;;;-144.01;100.00;62166.59;5074751;28;20739;-72
2021/01/07 09:13:19;;;;;;;1.20;0.80;;;;;;;-144.01;100.00;62166.59;5074876;28;20052;-70
2021/01/07 09:15:46;;;;;;;2.30;0.77;;;;;;;-144.01;100.00;62166.59;5074740;28;20344;-68
2021/01/07 09:18:16;;;;;;;2.05;0.70;;;;;;;-144.01;100.00;62166.59;5074054;28;20040;-68
2021/01/07 09:20:44;;;;;;;1.80;0.75;;;;;;;-144.01;100.00;62166.59;5074831;28;20056;-67
2021/01/07 09:23:16;;;;;;;1.38;0.80;;;;;;;-144.01;100.00;62166.59;5074446;28;20052;-69
2021/01/07 09:25:44;;;;;;;3.35;0.88;;;;;;;-144.01;100.00;62166.59;5073522;28;20056;-71
2021/01/07 09:28:11;;;;;;;2.17;0.68;;;;;;;-144.01;100.00;62166.59;5074363;28;20051;-68
2021/01/07 09:30:38;;;;;;;0.73;0.50;;;;;;;-144.01;100.00;62166.59;5074531;28;20060;-68
2021/01/07 09:33:05;;;;;;;0.95;0.60;;;;;;;-144.01;100.00;62166.59;5074301;28;20358;-61
2021/01/07 09:35:32;;;;;;;1.20;0.80;;;;;;;-144.01;100.00;62166.59;5073471;28;20048;-67
2021/01/07 09:38:00;;;;;;;1.35;0.70;;;;;;;-144.01;100.00;62166.59;5071279;28;20055;-55
2021/01/07 09:40:28;;;;;;;1.30;1.00;;;;;;;-144.01;100.00;62166.59;5059744;28;20086;-53
2021/01/07 09:42:55;;;;;;;2.67;1.10;;;;;;;-144.01;100.00;62166.59;5066588;28;20052;-55
2021/01/07 09:45:22;;;;;;;2.85;1.60;;;;;;;-144.01;100.00;62166.59;5073928;28;20463;-57
2021/01/07 09:47:49;;;;;;;5.07;2.72;;;;;;;-144.01;100.00;62166.59;5071991;28;20055;-70
2021/01/07 09:50:20;;;;;;;1.63;1.20;;;;;;;-144.01;100.00;62166.59;5052916;28;20052;-59
2021/01/07 09:52:47;;;;;;;1.42;0.90;;;;;;;-144.01;100.00;62166.59;5053806;28;20053;-55
2021/01/07 09:55:14;;;;;;;1.30;0.93;;;;;;;-144.01;100.00;62166.59;5053925;28;20038;-62
2021/01/07 09:57:46;;;;;;;1.15;0.75;;;;;;;-144.01;100.00;62166.59;5054836;28;20064;-56
2021/01/07 10:00:15;;;;;;;;;;;;;;;-144.01;100.00;62166.59;5074505;28;20059;-65
2021/01/07 10:02:42;;;;;;;1.75;1.30;;;;;;;-144.01;100.00;62166.59;5072563;28;19928;-56
2021/01/07 10:05:10;;;;;;;3.28;1.80;;;;;;;-144.01;100.00;62166.59;5073727;28;20048;-53
2021/01/07 10:07:37;;;;;;;3.65;2.92;;;;;;;-144.01;100.00;62166.59;5068217;28;20068;-55
2021/01/07 10:10:04;;;;;;;2.95;2.10;;;;;;;-144.01;100.00;62166.59;5073539;28;20052;-52
2021/01/07 10:12:31;;;;;;;3.40;1.63;;;;;;;-144.01;100.00;62166.59;5074092;28;20052;-52
2021/01/07 10:14:59;;;;;;;1.65;1.25;;;;;;;-144.01;100.00;62166.59;5055209;28;20049;-54
2021/01/07 10:17:27;;;;;;;1.58;1.20;;;;;;;-144.01;100.00;62166.59;5053696;28;20056;-55
2021/01/07 10:19:55;;;;;;;2.83;1.92;;;;;;;-144.01;100.00;62166.59;5071967;28;20358;-53
2021/01/07 10:22:23;;;;;;;3.80;2.35;;;;;;;-144.01;100.00;62166.59;5059980;28;20063;-53
2021/01/07 10:24:53;;;;;;;2.00;1.20;;;;;;;-144.01;100.00;62166.59;5053384;28;20052;-53
2021/01/07 10:27:20;;;;;;;4.25;2.78;;;;;;;-144.01;100.00;62166.59;5052694;28;20056;-54
2021/01/07 10:29:47;;;;;;;3.42;2.72;;;;;;;-144.01;100.00;62166.59;5070972;28;20178;-54
2021/01/07 10:32:18;;;;;;;6.50;4.63;;;;;;;-144.01;100.00;62166.59;5073147;28;20056;-55
2021/01/07 10:34:50;;;;;;;3.28;2.60;;;;;;;-144.01;100.00;62166.59;5073428;28;20049;-53
2021/01/07 10:37:22;;;;;;;2.55;1.90;;;;;;;-144.01;100.00;62166.59;5072973;28;20056;-53
2021/01/07 10:39:51;;;;;;;2.20;1.17;;;;;;;-144.01;100.00;62166.59;5073772;28;20075;-55
2021/01/07 10:42:19;;;;;;;2.92;1.50;;;;;;;-144.01;100.00;62166.59;5073905;28;20048;-53
2021/01/07 10:44:48;;;;;;;1.80;1.23;;;;;;;-144.01;100.00;62166.59;5073371;28;20048;-53
2021/01/07 10:47:17;;;;;;;1.90;1.00;;;;;;;-144.01;100.00;62166.59;5073803;28;20056;-53
2021/01/07 10:49:46;;;;;;;2.05;1.42;;;;;;;-144.01;100.00;62166.59;5073234;28;20057;-54
2021/01/07 10:52:39;;;;;;;1.75;1.27;;;;;;;-144.01;100.00;62166.59;5055759;28;20079;-53
2021/01/07 10:55:07;;;;;;;1.90;0.90;;;;;;;-144.01;100.00;62166.59;5061132;28;20052;-53
2021/01/07 10:57:52;;;;;;;2.72;1.20;;;;;;;-144.01;100.00;62166.59;5070673;28;20055;-53
2021/01/07 11:00:38;;;;;;;3.17;1.13;;;;;;;-144.01;100.00;62166.59;5053499;28;20053;-53
2021/01/07 11:03:24;;;;;;;3.15;0.90;;;;;;;-144.01;100.00;62166.59;5053104;28;20059;-56
2021/01/07 11:06:02;;;;;;;1.15;0.82;;;;;;;-144.01;100.00;62166.59;5053108;28;20067;-54
2021/01/07 11:09:14;;;;;;;1.67;0.90;;;;;;;-144.01;100.00;62166.59;5053033;28;20406;-53
2021/01/07 11:11:49;;;;;;;1.70;1.00;;;;;;;-144.01;100.00;62166.59;5048145;28;20049;-54
2021/01/07 11:14:27;;;;;;;1.55;1.08;;;;;;;-144.01;100.00;62166.59;5054928;28;20044;-50
2021/01/07 11:16:59;;;;;;;1.77;1.20;;;;;;;-144.01;100.00;62166.59;5063396;28;20044;-53